Time;durP1;ratioP1;P1;durP2;ratioP2;P2;SDS_P1;SDS_P2;PMS_P1;PMS_P2;Temp;Humidity;BMP_temperature;BMP_pressure;BME280_temperature;BME280_humidity;BME280_pressure;Samples;Min_cycle;Max_cycle;Signal;HPM_P1;HPM_P2
2021/11/14 07:00:46;;;;;;;16.83;2.55;;;10.90;99.90;;;;;;5698225;23;20049;-84
2021/11/14 07:03:14;;;;;;;17.42;2.47;;;10.90;99.90;;;;;;4877293;29;20056;-82
2021/11/14 07:05:41;;;;;;;10.52;2.15;;;10.90;99.90;;;;;;4877759;29;20056;-83
2021/11/14 07:08:09;;;;;;;18.08;3.47;;;10.80;99.90;;;;;;4878099;29;20096;-84
2021/11/14 07:10:37;;;;;;;20.52;3.35;;;10.90;99.90;;;;;;4878606;29;20053;-82
2021/11/14 07:13:04;;;;;;;13.30;2.33;;;10.90;99.90;;;;;;4878077;29;20049;-83
2021/11/14 07:15:31;;;;;;;17.15;2.35;;;10.90;99.90;;;;;;4875988;29;20045;-83
2021/11/14 07:17:59;;;;;;;12.07;2.53;;;10.90;99.90;;;;;;4877430;29;20129;-83
2021/11/14 07:20:26;;;;;;;28.63;3.08;;;10.90;99.90;;;;;;4877059;29;20424;-82
2021/11/14 07:22:54;;;;;;;15.30;2.80;;;10.90;99.90;;;;;;4877756;29;20108;-83
2021/11/14 07:25:21;;;;;;;19.15;3.00;;;10.90;99.90;;;;;;4876975;29;20510;-82
2021/11/14 07:27:51;;;;;;;23.08;2.75;;;10.90;99.90;;;;;;4878201;29;20510;-83
2021/11/14 07:30:19;;;;;;;21.77;3.70;;;10.90;99.90;;;;;;4877256;29;20052;-82
2021/11/14 07:32:47;;;;;;;15.85;2.72;;;10.90;99.90;;;;;;4877217;29;20108;-83
2021/11/14 07:35:16;;;;;;;19.38;3.20;;;10.90;99.90;;;;;;4877122;29;20049;-83
2021/11/14 07:37:43;;;;;;;12.65;3.17;;;10.90;99.90;;;;;;4877652;29;20045;-83
2021/11/14 07:40:14;;;;;;;17.80;3.15;;;10.90;99.90;;;;;;4862628;29;20050;-82
2021/11/14 07:42:44;;;;;;;18.88;3.60;;;10.90;99.90;;;;;;4871138;29;20061;-82
2021/11/14 07:45:13;;;;;;;11.50;2.00;;;10.90;99.90;;;;;;4873852;29;20065;-83
2021/11/14 07:47:41;;;;;;;23.73;3.40;;;11.00;99.90;;;;;;4873228;29;20071;-83
2021/11/14 07:50:09;;;;;;;18.75;2.28;;;11.00;99.90;;;;;;4876011;29;20052;-82
2021/11/14 07:52:36;;;;;;;11.63;2.33;;;11.00;99.90;;;;;;4875346;29;20459;-82
2021/11/14 07:55:06;;;;;;;19.83;2.95;;;10.90;99.90;;;;;;4872223;29;20060;-82
2021/11/14 07:57:34;;;;;;;11.68;2.30;;;11.00;99.90;;;;;;4876915;29;20133;-82
2021/11/14 08:00:07;;;;;;;19.20;3.10;;;11.00;99.90;;;;;;4866051;29;20053;-82
2021/11/14 08:02:34;;;;;;;22.10;3.50;;;11.00;99.90;;;;;;4875655;29;20056;-80
2021/11/14 08:05:01;;;;;;;17.52;2.33;;;11.00;99.90;;;;;;4876447;29;20143;-83
2021/11/14 08:07:28;;;;;;;18.17;2.63;;;11.00;99.90;;;;;;4872166;29;20057;-81
2021/11/14 08:09:55;;;;;;;13.15;2.83;;;11.00;99.90;;;;;;4872955;29;20121;-82
2021/11/14 08:12:22;;;;;;;20.17;2.80;;;11.00;99.90;;;;;;4875413;29;20121;-82
2021/11/14 08:14:49;;;;;;;12.43;2.55;;;11.10;99.90;;;;;;4875002;29;20498;-82
2021/11/14 08:17:16;;;;;;;17.48;3.13;;;11.10;99.90;;;;;;4873211;29;20052;-82
2021/11/14 08:19:43;;;;;;;10.13;2.35;;;11.10;99.90;;;;;;4873951;29;20040;-81
2021/11/14 08:22:11;;;;;;;15.55;2.97;;;11.10;99.90;;;;;;4872368;29;20553;-81
2021/11/14 08:24:41;;;;;;;10.70;2.80;;;11.10;99.90;;;;;;4875147;29;20056;-82
2021/11/14 08:27:08;;;;;;;13.35;3.10;;;11.10;99.90;;;;;;4874141;29;20491;-82
2021/11/14 08:29:35;;;;;;;13.60;2.80;;;11.10;99.90;;;;;;4875514;29;20057;-83
2021/11/14 08:32:02;;;;;;;16.67;2.85;;;11.10;99.90;;;;;;4873813;29;20511;-83
2021/11/14 08:34:29;;;;;;;15.40;2.50;;;11.10;99.90;;;;;;4873792;29;20944;-81
2021/11/14 08:36:57;;;;;;;13.18;2.40;;;11.10;99.90;;;;;;4871881;29;20053;-83
2021/11/14 08:39:24;;;;;;;7.28;1.90;;;11.10;99.90;;;;;;4873100;29;20049;-83
2021/11/14 08:41:51;;;;;;;11.50;2.33;;;11.10;99.90;;;;;;4874455;29;20057;-81
2021/11/14 08:44:18;;;;;;;11.60;2.13;;;11.10;99.90;;;;;;4873822;29;20117;-82
2021/11/14 08:46:45;;;;;;;10.65;1.85;;;11.10;99.90;;;;;;4874654;29;20092;-82
2021/11/14 08:49:12;;;;;;;13.15;2.97;;;11.10;99.90;;;;;;4871946;29;20041;-81
2021/11/14 08:51:39;;;;;;;8.82;2.00;;;11.10;99.90;;;;;;4872799;29;20049;-82
2021/11/14 08:54:06;;;;;;;12.65;2.05;;;11.10;99.90;;;;;;4874349;29;20121;-83
2021/11/14 08:56:36;;;;;;;7.30;1.88;;;11.10;99.90;;;;;;4862769;29;20052;-83
2021/11/14 08:59:08;;;;;;;9.63;2.75;;;11.10;99.90;;;;;;4870683;29;20064;-81
2021/11/14 09:01:36;;;;;;;10.68;1.70;;;11.20;99.90;;;;;;4872084;29;20855;-81
2021/11/14 09:04:07;;;;;;;10.45;2.10;;;11.30;99.90;;;;;;4867618;29;20044;-82
2021/11/14 09:06:35;;;;;;;9.15;2.10;;;11.30;99.90;;;;;;4875065;29;20536;-81
2021/11/14 09:09:04;;;;;;;8.55;1.70;;;11.40;99.90;;;;;;4872783;29;20057;-82
2021/11/14 09:11:31;;;;;;;10.82;2.05;;;11.50;99.90;;;;;;4870922;29;20110;-82
2021/11/14 09:13:58;;;;;;;6.25;1.60;;;11.50;99.90;;;;;;4872245;29;20455;-82
2021/11/14 09:16:28;;;;;;;9.60;1.98;;;11.60;99.90;;;;;;4874550;29;20542;-81
2021/11/14 09:18:58;;;;;;;4.80;1.77;;;11.60;99.90;;;;;;4874924;29;20136;-82
2021/11/14 09:21:25;;;;;;;5.97;1.67;;;11.70;99.90;;;;;;4874807;29;20077;-82
2021/11/14 09:23:52;;;;;;;6.05;1.63;;;11.70;99.90;;;;;;4874384;29;20065;-82
2021/11/14 09:26:20;;;;;;;9.80;2.15;;;11.70;99.90;;;;;;4873799;29;20113;-82
2021/11/14 09:28:47;;;;;;;8.10;2.08;;;11.80;99.90;;;;;;4873913;29;20061;-82
2021/11/14 09:31:14;;;;;;;6.97;2.00;;;11.80;99.90;;;;;;4875524;29;20053;-83
2021/11/14 09:33:45;;;;;;;3.83;1.30;;;11.90;99.90;;;;;;4874280;29;20061;-82
2021/11/14 09:36:12;;;;;;;4.60;1.27;;;12.00;99.90;;;;;;4874687;29;20704;-84
2021/11/14 09:38:40;;;;;;;7.18;1.38;;;12.00;99.90;;;;;;4875074;29;20502;-83
2021/11/14 09:41:09;;;;;;;5.32;1.70;;;12.00;99.90;;;;;;4875378;29;20110;-83
2021/11/14 09:43:37;;;;;;;6.88;1.50;;;12.10;99.90;;;;;;4869556;29;20045;-83
2021/11/14 09:46:04;;;;;;;6.97;1.50;;;12.10;99.90;;;;;;4875488;29;20466;-82
2021/11/14 09:48:31;;;;;;;3.83;1.30;;;12.20;99.90;;;;;;4874770;29;20121;-82
2021/11/14 09:51:00;;;;;;;4.93;1.50;;;12.20;99.90;;;;;;4875010;29;20479;-82
2021/11/14 09:53:35;;;;;;;3.53;1.38;;;12.20;99.90;;;;;;4874878;29;20097;-83
2021/11/14 09:56:04;;;;;;;6.35;1.30;;;12.30;99.90;;;;;;4875032;29;20471;-82
2021/11/14 09:58:31;;;;;;;8.23;1.90;;;12.30;99.90;;;;;;4873864;29;20044;-83
2021/11/14 10:01:00;;;;;;;8.35;1.92;;;12.40;99.90;;;;;;4872741;29;20061;-83
2021/11/14 10:03:28;;;;;;;7.13;1.70;;;12.40;99.90;;;;;;4872234;29;20048;-82
2021/11/14 10:05:55;;;;;;;5.60;1.48;;;12.40;99.90;;;;;;4873337;29;20060;-83
2021/11/14 10:08:23;;;;;;;7.15;1.85;;;12.40;99.90;;;;;;4871403;29;20499;-84
2021/11/14 10:10:54;;;;;;;4.07;1.60;;;12.50;99.90;;;;;;4868190;29;20073;-82
2021/11/14 10:13:25;;;;;;;6.05;2.00;;;12.50;99.90;;;;;;4866596;29;20519;-84
2021/11/14 10:16:08;;;;;;;10.05;2.05;;;12.50;99.90;;;;;;4873576;29;20136;-83
2021/11/14 10:18:37;;;;;;;6.85;2.67;;;12.50;99.90;;;;;;4872141;29;20041;-84
2021/11/14 10:21:04;;;;;;;;;;;12.50;99.90;;;;;;4873444;29;20049;-85
2021/11/14 10:23:33;;;;;;;7.43;1.73;;;12.60;99.90;;;;;;4875208;29;19923;-83
2021/11/14 10:26:07;;;;;;;;;;;12.60;99.90;;;;;;4875730;29;20506;-83
2021/11/14 10:28:35;;;;;;;7.43;1.92;;;12.70;99.90;;;;;;4871614;29;19931;-84
2021/11/14 10:31:08;;;;;;;6.57;2.22;;;12.80;99.90;;;;;;4869640;29;20056;-87
2021/11/14 10:33:36;;;;;;;6.78;2.08;;;12.80;99.90;;;;;;4876531;29;20128;-83
2021/11/14 10:36:04;;;;;;;8.13;2.50;;;12.90;99.90;;;;;;4876951;29;20057;-83
2021/11/14 10:38:35;;;;;;;6.38;2.38;;;13.00;99.90;;;;;;4876670;29;20757;-83
2021/11/14 10:41:07;;;;;;;8.32;2.45;;;13.00;99.90;;;;;;4878248;29;20049;-84
2021/11/14 10:43:38;;;;;;;8.35;2.28;;;13.10;99.90;;;;;;4873634;29;20048;-83
2021/11/14 10:46:20;;;;;;;8.05;2.20;;;13.10;99.90;;;;;;4875418;29;20056;-84
2021/11/14 10:48:48;;;;;;;5.15;2.13;;;13.10;99.90;;;;;;4876485;29;20084;-83
2021/11/14 10:51:18;;;;;;;5.33;2.70;;;13.10;99.90;;;;;;4877357;29;20128;-83
2021/11/14 10:53:46;;;;;;;5.30;1.90;;;13.20;99.90;;;;;;4876435;29;20084;-83
2021/11/14 10:56:14;;;;;;;3.92;2.38;;;13.30;99.90;;;;;;4876419;29;20037;-82
2021/11/14 10:58:43;;;;;;;5.30;2.65;;;13.30;99.90;;;;;;4875450;29;20597;-84
2021/11/14 11:01:12;;;;;;;3.17;2.25;;;13.40;99.90;;;;;;4875918;29;20049;-83
2021/11/14 11:03:47;;;;;;;4.88;2.22;;;13.40;99.90;;;;;;4877473;29;20052;-83
2021/11/14 11:06:25;;;;;;;7.15;2.38;;;13.40;99.90;;;;;;4875754;29;20049;-83
2021/11/14 11:08:56;;;;;;;4.25;2.17;;;13.50;99.90;;;;;;4877003;29;20481;-83
2021/11/14 11:11:41;;;;;;;4.60;2.30;;;13.50;99.90;;;;;;4867845;29;20369;-84
2021/11/14 11:14:09;;;;;;;7.50;2.08;;;13.50;99.90;;;;;;4870020;29;20071;-83
2021/11/14 11:16:36;;;;;;;4.05;2.35;;;13.60;99.90;;;;;;4873354;29;20480;-83
2021/11/14 11:19:11;;;;;;;2.80;1.90;;;13.70;99.90;;;;;;4872798;29;20057;-84
2021/11/14 11:21:48;;;;;;;3.30;2.10;;;13.70;99.90;;;;;;4869751;29;20518;-83
2021/11/14 11:24:21;;;;;;;3.88;2.25;;;13.80;99.90;;;;;;4874235;29;20072;-84
2021/11/14 11:27:02;;;;;;;2.78;1.80;;;13.80;99.90;;;;;;4870576;29;20060;-83
2021/11/14 11:29:31;;;;;;;3.33;2.08;;;13.90;99.90;;;;;;4872565;29;20577;-83
2021/11/14 11:31:58;;;;;;;4.25;1.60;;;14.00;99.90;;;;;;4863089;29;20129;-82
2021/11/14 11:34:26;;;;;;;5.97;1.73;;;14.00;99.90;;;;;;4860291;29;20460;-82
2021/11/14 11:36:54;;;;;;;3.97;1.90;;;14.10;99.90;;;;;;4863821;29;20114;-82
2021/11/14 11:39:22;;;;;;;3.42;1.88;;;14.10;99.90;;;;;;4872360;29;20521;-83
2021/11/14 11:41:51;;;;;;;3.97;1.77;;;14.10;99.90;;;;;;4873940;29;20062;-81
2021/11/14 11:44:23;;;;;;;4.72;1.80;;;14.20;99.90;;;;;;4858862;29;20169;-82
2021/11/14 11:46:53;;;;;;;3.97;1.98;;;14.20;99.90;;;;;;4858803;29;20049;-83
2021/11/14 11:49:34;;;;;;;3.25;1.88;;;14.30;99.90;;;;;;4873247;29;20049;-82
2021/11/14 11:52:07;;;;;;;3.47;1.60;;;14.30;99.90;;;;;;4868315;29;20046;-82
2021/11/14 11:54:36;;;;;;;3.30;1.98;;;14.30;99.90;;;;;;4866135;29;20468;-82
2021/11/14 11:57:11;;;;;;;4.00;2.20;;;14.30;99.90;;;;;;4865341;29;20050;-80
2021/11/14 11:59:41;;;;;;;4.97;2.00;;;14.30;99.90;;;;;;4871312;29;20665;-83
2021/11/14 12:02:22;;;;;;;3.67;1.80;;;14.40;99.90;;;;;;4868599;29;20093;-86
2021/11/14 12:04:54;;;;;;;2.83;2.00;;;14.30;99.90;;;;;;4866204;29;20048;-84
2021/11/14 12:07:29;;;;;;;3.50;1.98;;;14.30;99.90;;;;;;4867337;29;20052;-83
2021/11/14 12:09:59;;;;;;;3.55;2.17;;;14.20;99.90;;;;;;4869451;29;20049;-82
2021/11/14 12:12:50;;;;;;;6.28;2.47;;;14.20;99.90;;;;;;4864577;29;20216;-81
2021/11/14 12:15:29;;;;;;;2.97;2.25;;;14.30;99.90;;;;;;4870289;29;20045;-81
2021/11/14 12:18:11;;;;;;;3.90;2.60;;;14.30;99.90;;;;;;4871627;29;20049;-83
2021/11/14 12:20:49;;;;;;;4.28;2.50;;;14.30;99.90;;;;;;4853637;29;20041;-82
2021/11/14 12:23:20;;;;;;;4.40;2.50;;;14.30;99.90;;;;;;4870523;29;20127;-82
2021/11/14 12:25:51;;;;;;;5.88;2.60;;;14.30;99.90;;;;;;4875182;29;20065;-82
2021/11/14 12:28:40;;;;;;;4.00;2.90;;;14.30;99.90;;;;;;4859891;29;20094;-82
2021/11/14 12:31:14;;;;;;;3.67;2.70;;;14.30;99.90;;;;;;4866329;29;20065;-82
2021/11/14 12:33:55;;;;;;;3.35;2.88;;;14.30;99.90;;;;;;4870661;29;20590;-83
2021/11/14 12:36:38;;;;;;;5.75;3.05;;;14.30;99.90;;;;;;4874704;29;20068;-82
2021/11/14 12:39:29;;;;;;;5.32;3.20;;;14.30;99.90;;;;;;4869506;29;20045;-82
2021/11/14 12:42:25;;;;;;;5.72;4.18;;;14.30;99.90;;;;;;4863942;29;20053;-83
2021/11/14 12:44:59;;;;;;;5.32;3.47;;;14.40;99.90;;;;;;4868153;29;20502;-81
2021/11/14 12:47:46;;;;;;;5.20;2.40;;;14.40;99.90;;;;;;4869645;29;20120;-82
2021/11/14 12:50:22;;;;;;;5.38;2.85;;;14.40;99.90;;;;;;4874896;29;20064;-83
2021/11/14 12:53:02;;;;;;;5.82;3.33;;;14.40;99.90;;;;;;4878062;29;20057;-82
2021/11/14 12:55:29;;;;;;;4.60;2.70;;;14.30;99.90;;;;;;4864311;29;20098;-82
2021/11/14 12:58:00;;;;;;;4.95;3.33;;;14.30;99.90;;;;;;4874324;29;20553;-82
2021/11/14 13:00:39;;;;;;;4.35;3.03;;;14.20;99.90;;;;;;4869137;29;20049;-81
2021/11/14 13:03:28;;;;;;;4.30;3.10;;;14.20;99.90;;;;;;4874605;29;20049;-81
2021/11/14 13:05:59;;;;;;;4.93;2.55;;;14.30;99.90;;;;;;4870072;29;20053;-81
2021/11/14 13:08:29;;;;;;;3.85;3.00;;;14.20;99.90;;;;;;4864992;29;20133;-83
2021/11/14 13:11:02;;;;;;;5.55;3.28;;;14.20;99.90;;;;;;4863968;29;20078;-81
2021/11/14 13:13:49;;;;;;;3.03;2.72;;;14.10;99.90;;;;;;4879695;29;20048;-83
2021/11/14 13:16:22;;;;;;;3.67;2.53;;;14.10;99.90;;;;;;4877310;29;20106;-83
2021/11/14 13:18:50;;;;;;;5.25;2.90;;;14.00;99.90;;;;;;4882729;29;20053;-83
2021/11/14 13:21:20;;;;;;;7.13;2.85;;;14.00;99.90;;;;;;4873761;29;20056;-83
2021/11/14 13:24:11;;;;;;;4.45;2.65;;;13.90;99.90;;;;;;4870067;29;20518;-83
2021/11/14 13:26:40;;;;;;;4.32;2.72;;;13.90;99.90;;;;;;4896637;29;20117;-81
2021/11/14 13:29:20;;;;;;;6.07;2.78;;;13.80;99.90;;;;;;4880334;29;20045;-83
2021/11/14 13:31:56;;;;;;;4.95;2.42;;;13.80;99.90;;;;;;4877502;29;20590;-82
2021/11/14 13:34:25;;;;;;;3.95;2.55;;;13.80;99.90;;;;;;4883470;29;20056;-82
2021/11/14 13:37:07;;;;;;;5.07;2.80;;;13.80;99.90;;;;;;4879077;29;20060;-83
2021/11/14 13:39:35;;;;;;;7.00;2.75;;;13.80;99.90;;;;;;4879059;29;20104;-84
2021/11/14 13:42:09;;;;;;;6.07;3.00;;;13.80;99.90;;;;;;4882591;29;20140;-83
2021/11/14 13:44:45;;;;;;;4.85;2.63;;;13.80;99.90;;;;;;4882100;29;20088;-83
2021/11/14 13:47:25;;;;;;;5.00;2.90;;;13.80;99.90;;;;;;4877126;29;20056;-84
2021/11/14 13:49:56;;;;;;;6.30;2.70;;;13.70;99.90;;;;;;4879068;29;20109;-84
2021/11/14 13:52:24;;;;;;;4.63;2.08;;;13.80;99.90;;;;;;4880460;29;20056;-83
2021/11/14 13:54:57;;;;;;;4.65;2.15;;;13.70;99.90;;;;;;4880280;29;20056;-82
2021/11/14 13:57:29;;;;;;;4.18;2.38;;;13.70;99.90;;;;;;4877593;29;20064;-81
2021/11/14 14:00:00;;;;;;;4.57;2.75;;;13.80;99.90;;;;;;4877116;29;20056;-84
2021/11/14 14:02:30;;;;;;;4.93;2.67;;;13.80;99.90;;;;;;4882292;29;20067;-83
2021/11/14 14:05:03;;;;;;;4.55;3.17;;;13.90;99.90;;;;;;4880285;29;20049;-84
2021/11/14 14:07:33;;;;;;;5.68;3.67;;;13.90;99.90;;;;;;4880101;29;20045;-84
2021/11/14 14:10:08;;;;;;;6.63;3.85;;;14.00;99.90;;;;;;4883194;29;20053;-83
2021/11/14 14:12:39;;;;;;;6.47;3.88;;;14.00;99.90;;;;;;4881112;29;20053;-82
2021/11/14 14:15:16;;;;;;;7.75;3.95;;;14.00;99.90;;;;;;4866703;29;20048;-82
2021/11/14 14:17:46;;;;;;;5.13;3.80;;;14.00;99.90;;;;;;4870446;29;20108;-83
2021/11/14 14:20:15;;;;;;;4.90;3.78;;;14.00;99.90;;;;;;4876234;29;20731;-82
2021/11/14 14:22:43;;;;;;;;;;;14.00;99.90;;;;;;4874445;29;20053;-83
2021/11/14 14:25:14;;;;;;;7.55;3.63;;;14.00;99.90;;;;;;4866502;29;19932;-81
2021/11/14 14:27:44;;;;;;;5.15;3.45;;;14.00;99.90;;;;;;4865018;29;20059;-82
2021/11/14 14:30:18;;;;;;;7.00;3.97;;;14.00;99.90;;;;;;4861768;29;20064;-82
2021/11/14 14:32:54;;;;;;;7.75;4.03;;;14.00;99.90;;;;;;4866368;29;20172;-83
2021/11/14 14:35:26;;;;;;;5.60;3.95;;;13.90;99.90;;;;;;4842660;29;20045;-82
2021/11/14 14:38:08;;;;;;;6.45;4.13;;;13.90;99.90;;;;;;4862568;29;20101;-82
2021/11/14 14:40:44;;;;;;;6.75;4.53;;;13.90;99.90;;;;;;4864752;29;20105;-83
2021/11/14 14:43:14;;;;;;;5.68;3.90;;;13.90;99.90;;;;;;4860613;29;20056;-83
2021/11/14 14:45:55;;;;;;;7.38;4.35;;;13.90;99.90;;;;;;4862306;29;20076;-81
2021/11/14 14:48:26;;;;;;;6.85;3.92;;;14.00;99.90;;;;;;4859236;29;20058;-83
2021/11/14 14:50:56;;;;;;;6.57;3.65;;;13.90;99.90;;;;;;4862711;29;20076;-83
2021/11/14 14:53:30;;;;;;;5.55;3.63;;;13.90;99.90;;;;;;4873503;29;20045;-83
2021/11/14 14:56:16;;;;;;;4.70;3.65;;;13.90;99.90;;;;;;4866639;29;20505;-83
2021/11/14 14:59:05;;;;;;;11.43;4.10;;;13.90;99.90;;;;;;4869801;29;20061;-82
2021/11/14 15:01:34;;;;;;;4.47;3.47;;;13.90;99.90;;;;;;4868367;29;20049;-83
2021/11/14 15:04:11;;;;;;;;;;;14.00;99.90;;;;;;4865906;29;20554;-83
2021/11/14 15:06:39;;;;;;;5.07;3.83;;;13.90;99.90;;;;;;4872290;29;19931;-82
2021/11/14 15:09:22;;;;;;;6.68;3.40;;;13.90;99.90;;;;;;4876697;29;20510;-83
2021/11/14 15:12:15;;;;;;;6.75;3.80;;;13.90;99.90;;;;;;4874247;29;20593;-84
2021/11/14 15:14:48;;;;;;;6.53;3.72;;;13.80;99.90;;;;;;4875364;29;20049;-83
2021/11/14 15:17:16;;;;;;;5.60;3.50;;;13.80;99.90;;;;;;4867490;29;20053;-84
2021/11/14 15:19:55;;;;;;;6.97;3.78;;;13.90;99.90;;;;;;4872835;29;20057;-83
2021/11/14 15:22:22;;;;;;;11.27;4.00;;;13.90;99.90;;;;;;4874211;29;20056;-84
2021/11/14 15:24:50;;;;;;;4.93;3.33;;;13.90;99.90;;;;;;4869049;29;20057;-83
2021/11/14 15:27:22;;;;;;;7.68;3.78;;;13.90;99.90;;;;;;4881888;29;20195;-82
2021/11/14 15:29:50;;;;;;;5.78;3.28;;;13.90;99.90;;;;;;4867053;29;20463;-82
2021/11/14 15:32:17;;;;;;;7.00;3.58;;;13.90;99.90;;;;;;4874925;29;20318;-83
2021/11/14 15:34:44;;;;;;;6.30;3.58;;;13.90;99.90;;;;;;4875649;29;20048;-81
2021/11/14 15:37:15;;;;;;;6.72;3.30;;;13.90;99.90;;;;;;4879732;29;20108;-82
2021/11/14 15:39:43;;;;;;;7.88;3.10;;;13.90;99.90;;;;;;4868780;29;20070;-86
2021/11/14 15:42:11;;;;;;;5.50;2.75;;;13.90;99.90;;;;;;4871796;29;20064;-83
2021/11/14 15:44:38;;;;;;;6.77;3.10;;;13.80;99.90;;;;;;4872923;29;20057;-82
2021/11/14 15:47:05;;;;;;;7.95;2.65;;;13.80;99.90;;;;;;4867230;29;20052;-82
2021/11/14 15:49:32;;;;;;;3.72;2.35;;;13.70;99.90;;;;;;4866185;29;20502;-82
2021/11/14 15:52:00;;;;;;;4.25;1.98;;;13.70;99.90;;;;;;4870401;29;20057;-83
2021/11/14 15:54:27;;;;;;;5.03;2.10;;;13.60;99.90;;;;;;4876464;29;20049;-82
2021/11/14 15:56:54;;;;;;;4.82;2.10;;;13.60;99.90;;;;;;4867976;29;20041;-82
2021/11/14 15:59:21;;;;;;;7.03;2.42;;;13.60;99.90;;;;;;4870065;29;20510;-81
2021/11/14 16:01:48;;;;;;;3.63;2.00;;;13.50;99.90;;;;;;4874437;29;20553;-82
2021/11/14 16:04:17;;;;;;;7.38;2.25;;;13.50;99.90;;;;;;4867677;29;20058;-81
2021/11/14 16:06:44;;;;;;;4.80;2.13;;;13.50;99.90;;;;;;4872084;29;20096;-81
2021/11/14 16:09:12;;;;;;;6.97;2.00;;;13.40;99.90;;;;;;4864962;29;20056;-83
2021/11/14 16:11:41;;;;;;;6.03;2.30;;;13.50;99.90;;;;;;4866896;29;20056;-82
2021/11/14 16:14:11;;;;;;;;;;;13.40;99.90;;;;;;4864201;29;20610;-83
2021/11/14 16:16:38;;;;;;;5.32;1.65;;;13.30;99.90;;;;;;4864113;29;19927;-84
2021/11/14 16:19:06;;;;;;;5.82;2.00;;;13.30;99.90;;;;;;4867290;29;20048;-83
2021/11/14 16:21:33;;;;;;;6.40;1.77;;;13.30;99.90;;;;;;4866434;29;20060;-83
2021/11/14 16:24:00;;;;;;;6.88;2.10;;;13.30;99.90;;;;;;4868274;29;20049;-82
2021/11/14 16:26:27;;;;;;;4.72;1.70;;;13.30;99.90;;;;;;4868257;29;20053;-83
2021/11/14 16:28:55;;;;;;;6.65;2.00;;;13.30;99.90;;;;;;4865984;29;20046;-81
2021/11/14 16:31:22;;;;;;;5.60;1.80;;;13.20;99.90;;;;;;4861160;29;20049;-81
2021/11/14 16:33:50;;;;;;;5.22;2.20;;;13.20;99.90;;;;;;4869116;29;20075;-81
2021/11/14 16:36:17;;;;;;;4.70;2.15;;;13.20;99.90;;;;;;4865607;29;20149;-83
2021/11/14 16:38:44;;;;;;;7.18;2.05;;;13.20;99.90;;;;;;4870603;29;20120;-82
2021/11/14 16:41:12;;;;;;;5.43;2.45;;;13.20;99.90;;;;;;4858558;29;20518;-83
2021/11/14 16:43:39;;;;;;;7.22;2.20;;;13.10;99.90;;;;;;4868863;29;20506;-82
2021/11/14 16:46:06;;;;;;;5.95;2.22;;;13.10;99.90;;;;;;4865702;29;20049;-82
2021/11/14 16:48:33;;;;;;;8.85;2.30;;;13.10;99.90;;;;;;4872092;29;20045;-82
2021/11/14 16:51:00;;;;;;;4.80;2.20;;;13.10;99.90;;;;;;4867569;29;20456;-83
2021/11/14 16:53:28;;;;;;;5.82;2.50;;;13.00;99.90;;;;;;4864500;29;20052;-83
2021/11/14 16:55:55;;;;;;;5.28;2.17;;;13.00;99.90;;;;;;4869916;29;20516;-82
2021/11/14 16:58:25;;;;;;;5.55;2.20;;;13.00;99.90;;;;;;4866936;29;20585;-81
2021/11/14 17:00:53;;;;;;;6.28;2.38;;;12.90;99.90;;;;;;4833457;29;1160072;-83
2021/11/14 17:03:21;;;;;;;6.80;2.50;;;12.90;99.90;;;;;;4868530;29;20105;-83
2021/11/14 17:05:50;;;;;;;4.85;2.40;;;12.90;99.90;;;;;;4866493;29;20061;-82
2021/11/14 17:08:16;;;;;;;7.53;2.60;;;12.80;99.90;;;;;;4871090;29;20080;-82
2021/11/14 17:10:44;;;;;;;5.15;2.20;;;12.80;99.90;;;;;;4867551;29;20131;-82
2021/11/14 17:13:11;;;;;;;5.82;2.80;;;12.70;99.90;;;;;;4874545;29;20143;-81
2021/11/14 17:15:38;;;;;;;4.05;2.40;;;12.70;99.90;;;;;;4867914;29;20057;-83
2021/11/14 17:18:05;;;;;;;6.07;2.72;;;12.70;99.90;;;;;;4873588;29;20116;-81
2021/11/14 17:20:33;;;;;;;7.97;2.97;;;12.70;99.90;;;;;;4872727;29;20053;-82
2021/11/14 17:23:00;;;;;;;7.72;2.63;;;12.60;99.90;;;;;;4872704;29;20053;-82
2021/11/14 17:25:27;;;;;;;7.13;2.75;;;12.60;99.90;;;;;;4865786;29;20068;-82
2021/11/14 17:27:54;;;;;;;5.35;2.72;;;12.60;99.90;;;;;;4872418;29;20454;-80
2021/11/14 17:30:22;;;;;;;8.57;2.92;;;12.60;99.90;;;;;;4867546;29;20130;-81
2021/11/14 17:32:49;;;;;;;3.80;2.40;;;12.60;99.90;;;;;;4872787;29;20060;-82
2021/11/14 17:35:16;;;;;;;7.38;2.95;;;12.60;99.90;;;;;;4867613;29;20053;-83
2021/11/14 17:37:44;;;;;;;3.90;2.40;;;12.50;99.90;;;;;;4867140;29;20541;-83
2021/11/14 17:40:12;;;;;;;4.63;2.17;;;12.50;99.90;;;;;;4868480;29;20062;-83
2021/11/14 17:42:47;;;;;;;5.90;2.67;;;12.40;99.90;;;;;;4866174;29;20061;-85
2021/11/14 17:45:16;;;;;;;7.97;3.13;;;12.40;99.90;;;;;;4867498;29;20097;-83
2021/11/14 17:47:43;;;;;;;7.20;2.85;;;12.40;99.90;;;;;;4864386;29;20733;-83
2021/11/14 17:50:11;;;;;;;5.50;3.00;;;12.30;99.90;;;;;;4862782;29;20059;-83
2021/11/14 17:52:38;;;;;;;7.25;3.85;;;12.30;99.90;;;;;;4867590;29;20105;-82
2021/11/14 17:55:06;;;;;;;7.88;4.80;;;12.30;99.90;;;;;;4867493;29;20534;-82
2021/11/14 17:57:33;;;;;;;6.93;3.90;;;12.20;99.90;;;;;;4866380;29;20041;-85
2021/11/14 18:00:00;;;;;;;7.60;3.40;;;12.10;99.90;;;;;;4865589;29;20135;-83
2021/11/14 18:02:27;;;;;;;9.25;4.13;;;12.10;99.90;;;;;;4863471;29;20101;-81
2021/11/14 18:04:55;;;;;;;12.93;9.40;;;12.00;99.90;;;;;;4866789;29;20053;-83
2021/11/14 18:07:24;;;;;;;9.75;5.20;;;12.00;99.90;;;;;;4860131;29;20491;-83
2021/11/14 18:09:56;;;;;;;6.07;2.65;;;11.90;99.90;;;;;;4862269;29;20080;-84
2021/11/14 18:12:27;;;;;;;12.70;4.57;;;11.90;99.90;;;;;;4865731;29;20513;-87
2021/11/14 18:14:54;;;;;;;7.65;3.42;;;11.80;99.90;;;;;;4867304;29;20497;-84
2021/11/14 18:17:25;;;;;;;8.43;4.50;;;11.80;99.90;;;;;;4856992;29;20057;-84
2021/11/14 18:19:52;;;;;;;5.07;3.05;;;11.70;99.90;;;;;;4865397;29;20057;-87
2021/11/14 18:22:22;;;;;;;7.70;3.75;;;11.60;99.90;;;;;;4868275;29;20045;-87
2021/11/14 18:24:50;;;;;;;7.18;3.50;;;11.60;99.90;;;;;;4859785;29;20053;-87
2021/11/14 18:27:20;;;;;;;4.53;3.00;;;11.50;99.90;;;;;;4866240;29;20665;-85
2021/11/14 18:29:52;;;;;;;13.32;4.07;;;11.50;99.90;;;;;;4862646;29;20049;-86
2021/11/14 18:32:19;;;;;;;8.35;4.22;;;11.40;99.90;;;;;;4874579;29;20493;-85
2021/11/14 18:34:46;;;;;;;5.57;2.85;;;11.40;99.90;;;;;;4872666;29;20585;-84
2021/11/14 18:37:14;;;;;;;7.90;3.75;;;11.30;99.90;;;;;;4869661;29;20049;-84
2021/11/14 18:39:42;;;;;;;12.90;4.22;;;11.30;99.90;;;;;;4871594;29;20517;-84
2021/11/14 18:42:09;;;;;;;7.68;3.22;;;11.30;99.90;;;;;;4871159;29;20478;-84
2021/11/14 18:44:36;;;;;;;11.65;3.97;;;11.30;99.90;;;;;;4871961;29;20064;-85
2021/11/14 18:47:03;;;;;;;10.32;3.45;;;11.30;99.90;;;;;;4865294;29;20180;-84
2021/11/14 18:49:30;;;;;;;11.10;4.15;;;11.30;99.90;;;;;;4866161;29;20051;-86
2021/11/14 18:51:58;;;;;;;6.53;2.80;;;11.30;99.90;;;;;;4864474;29;20042;-83
2021/11/14 18:54:25;;;;;;;12.68;5.07;;;11.30;99.90;;;;;;4869418;29;20105;-83
2021/11/14 18:56:56;;;;;;;9.73;5.05;;;11.20;99.90;;;;;;4868466;29;20687;-84
2021/11/14 18:59:25;;;;;;;7.55;3.88;;;11.20;99.90;;;;;;4862542;29;20877;-83
2021/11/14 19:01:52;;;;;;;;;;;11.20;99.90;;;;;;4867820;29;20060;-83
2021/11/14 19:04:20;;;;;;;14.05;5.43;;;11.20;99.90;;;;;;4870184;29;19939;-82
2021/11/14 19:06:47;;;;;;;7.13;3.25;;;11.10;99.90;;;;;;4867764;29;20061;-83
2021/11/14 19:09:18;;;;;;;8.98;4.53;;;11.20;99.90;;;;;;4872699;29;20049;-82
2021/11/14 19:11:46;;;;;;;11.80;4.53;;;11.20;99.90;;;;;;4868898;29;20053;-82
2021/11/14 19:14:13;;;;;;;6.43;3.70;;;11.20;99.90;;;;;;4870067;29;20045;-84
2021/11/14 19:16:40;;;;;;;11.60;5.43;;;11.20;99.90;;;;;;4870748;29;20053;-85
2021/11/14 19:19:07;;;;;;;11.52;4.78;;;11.20;99.90;;;;;;4873874;29;20053;-85
2021/11/14 19:21:34;;;;;;;9.57;5.13;;;11.20;99.90;;;;;;4876468;29;20060;-86
2021/11/14 19:24:01;;;;;;;10.20;5.18;;;11.20;99.90;;;;;;4878661;29;20053;-84
2021/11/14 19:26:28;;;;;;;11.63;6.20;;;11.20;99.90;;;;;;4875885;29;20599;-86
2021/11/14 19:28:55;;;;;;;8.68;3.83;;;11.20;99.90;;;;;;4875855;29;20076;-84
2021/11/14 19:31:23;;;;;;;7.75;5.35;;;11.30;99.90;;;;;;4874798;29;20556;-85
2021/11/14 19:33:51;;;;;;;7.82;4.13;;;11.30;99.90;;;;;;4878428;29;20053;-85
2021/11/14 19:36:19;;;;;;;11.65;3.80;;;11.30;99.90;;;;;;4874193;29;20056;-86
2021/11/14 19:38:46;;;;;;;11.07;5.32;;;11.30;99.90;;;;;;4875441;29;20045;-85
2021/11/14 19:41:15;;;;;;;9.38;4.55;;;11.30;99.90;;;;;;4879760;29;20083;-86
2021/11/14 19:43:42;;;;;;;6.78;4.22;;;11.30;99.90;;;;;;4870819;29;20081;-83
2021/11/14 19:46:10;;;;;;;12.40;5.38;;;11.30;99.90;;;;;;4865068;29;20049;-85
2021/11/14 19:48:38;;;;;;;7.40;3.95;;;11.30;99.90;;;;;;4875282;29;20045;-87
2021/11/14 19:51:07;;;;;;;7.97;4.07;;;11.30;99.90;;;;;;4881454;29;20056;-87
2021/11/14 19:53:35;;;;;;;10.88;5.38;;;11.30;99.90;;;;;;4880446;29;20059;-91
2021/11/14 19:56:05;;;;;;;8.95;3.88;;;11.30;99.90;;;;;;4870642;29;20134;-86
2021/11/14 19:58:32;;;;;;;12.25;5.40;;;11.30;99.90;;;;;;4882327;29;20480;-86
2021/11/14 20:00:59;;;;;;;8.50;4.07;;;11.30;99.90;;;;;;4879981;29;20057;-87